logo
Search for airport 
image banner adimage banner adimage banner ad
image banner ad

VT96 - Mansfield Heliflight Inc

Located in Milton, United States

ICAO - VT96, IATA -

Data provided by Airmate  

General information

Coordinates: N44°36'0" W73°9'54"
Elevation is 175 feet MSL.
 
View others Airports in Vermont

Operational data

Special qualification required
Current time UTC:
Current local time:
Weather at : KBTV - Burlington Intl ( 14 km )
METAR: KBTV 131554Z 22010KT 10SM BKN043 OVC050 10/01 A2940 RMK AO2 RAE34 SLP957 VCSH P0000 T01000011
TAF: KBTV 131120Z 1312/1412 19011G20KT P6SM SCT025 OVC050 FM131600 20011KT P6SM VCSH BKN025 FM131800 24010KT P6SM -SHRA OVC025 FM140000 29013G20KT P6SM VCSH OVC015 FM140600 29009KT P6SM BKN025 FM141000 26006KT P6SM SCT110
View NOTAMs / SUP AIP / TFR affecting this airport [VIEW]
Communications frequencies: [VIEW]

Runways:

Airport contact information

Address: Milton United States

Other aviation service providers

Flight schools

Green Mountain Flight Academy

Green Mountain Flight Academy

Satellite view of VT96